Time;durP1;ratioP1;P1;durP2;ratioP2;P2;SDS_P1;SDS_P2;PMS_P1;PMS_P2;Temp;Humidity;BMP_temperature;BMP_pressure;BME280_temperature;BME280_humidity;BME280_pressure;Samples;Min_cycle;Max_cycle;Signal;HPM_P1;HPM_P2
2022/03/04 00:00:31;;;;;;;17.92;11.10;;;-0.10;99.90;;;;;;1827850;78;21137;-74
2022/03/04 00:02:58;;;;;;;16.02;9.60;;;-0.10;99.90;;;;;;1827709;78;21072;-74
2022/03/04 00:05:26;;;;;;;23.83;10.90;;;-0.10;99.90;;;;;;1827888;78;21553;-75
2022/03/04 00:07:53;;;;;;;16.25;10.15;;;-0.10;99.90;;;;;;1827881;77;21153;-73
2022/03/04 00:10:20;;;;;;;19.32;11.22;;;-0.10;99.90;;;;;;1827732;77;21483;-73
2022/03/04 00:12:47;;;;;;;15.63;10.88;;;-0.10;99.90;;;;;;1827935;77;21202;-74
2022/03/04 00:15:15;;;;;;;16.60;11.15;;;-0.20;99.90;;;;;;1827754;78;21532;-74
2022/03/04 00:17:42;;;;;;;16.50;10.55;;;-0.20;99.90;;;;;;1827904;78;21063;-73
2022/03/04 00:20:10;;;;;;;20.70;11.08;;;-0.20;99.90;;;;;;1827577;78;21424;-74
2022/03/04 00:22:37;;;;;;;21.10;10.63;;;-0.20;99.90;;;;;;1827618;77;21099;-74
2022/03/04 00:25:06;;;;;;;22.93;10.68;;;-0.20;99.90;;;;;;1827535;78;21153;-74
2022/03/04 00:27:33;;;;;;;18.15;10.82;;;-0.30;99.90;;;;;;1827474;78;21088;-74
2022/03/04 00:30:01;;;;;;;18.32;10.65;;;-0.30;99.90;;;;;;1827419;78;21141;-73
2022/03/04 00:32:29;;;;;;;21.33;12.37;;;-0.40;99.90;;;;;;1827495;78;21565;-73
2022/03/04 00:34:56;;;;;;;16.67;10.75;;;-0.40;99.90;;;;;;1827517;78;21071;-74
2022/03/04 00:37:23;;;;;;;18.73;11.00;;;-0.40;99.90;;;;;;1827482;78;21044;-75
2022/03/04 00:39:51;;;;;;;15.38;10.35;;;-0.40;99.90;;;;;;1827454;78;21040;-74
2022/03/04 00:42:18;;;;;;;16.90;10.80;;;-0.50;99.90;;;;;;1827546;78;21110;-75
2022/03/04 00:44:45;;;;;;;17.48;10.75;;;-0.40;99.90;;;;;;1827512;78;21105;-74
2022/03/04 00:47:13;;;;;;;16.23;11.03;;;-0.40;99.90;;;;;;1827485;78;21071;-73
2022/03/04 00:49:40;;;;;;;20.57;12.60;;;-0.40;99.90;;;;;;1827639;77;21060;-73
2022/03/04 00:52:07;;;;;;;17.92;10.60;;;-0.50;99.90;;;;;;1827464;77;21522;-74
2022/03/04 00:54:34;;;;;;;21.55;11.57;;;-0.50;99.90;;;;;;1827519;77;21129;-73
2022/03/04 00:57:02;;;;;;;16.45;10.78;;;-0.60;99.90;;;;;;1827517;77;21562;-74
2022/03/04 00:59:29;;;;;;;18.87;10.95;;;-0.60;99.90;;;;;;1827429;77;21064;-73
2022/03/04 01:01:56;;;;;;;16.25;10.95;;;-0.60;99.90;;;;;;1827443;78;21456;-73
2022/03/04 01:04:24;;;;;;;17.42;10.65;;;-0.60;99.90;;;;;;1827507;77;21141;-73
2022/03/04 01:06:51;;;;;;;20.17;12.25;;;-0.60;99.90;;;;;;1827546;77;21131;-73
2022/03/04 01:09:18;;;;;;;24.02;12.20;;;-0.70;99.90;;;;;;1827421;78;21459;-73
2022/03/04 01:11:46;;;;;;;25.08;13.88;;;-0.80;99.90;;;;;;1827431;78;21138;-73
2022/03/04 01:14:13;;;;;;;20.77;12.53;;;-0.70;99.90;;;;;;1827495;77;21483;-73
2022/03/04 01:16:40;;;;;;;27.82;13.20;;;-0.70;99.90;;;;;;1827544;78;21133;-72
2022/03/04 01:19:09;;;;;;;35.58;13.43;;;-0.80;99.90;;;;;;1827606;77;21581;-73
2022/03/04 01:21:38;;;;;;;22.65;12.73;;;-0.80;99.90;;;;;;1827550;78;21138;-74
2022/03/04 01:24:05;;;;;;;22.67;12.55;;;-0.80;99.90;;;;;;1827528;78;21064;-73
2022/03/04 01:26:33;;;;;;;24.07;12.20;;;-0.80;99.90;;;;;;1827448;77;21476;-73
2022/03/04 01:29:00;;;;;;;24.72;11.83;;;-0.90;99.90;;;;;;1827369;77;21063;-72
2022/03/04 01:31:27;;;;;;;21.05;12.25;;;-0.90;99.90;;;;;;1827520;78;21060;-73
2022/03/04 01:33:55;;;;;;;17.95;10.55;;;-0.90;99.90;;;;;;1827496;78;21121;-73
2022/03/04 01:36:22;;;;;;;18.40;11.35;;;-0.90;99.90;;;;;;1827393;78;21067;-74
2022/03/04 01:38:49;;;;;;;19.77;11.90;;;-0.90;99.90;;;;;;1827370;78;21070;-74
2022/03/04 01:41:17;;;;;;;18.12;11.22;;;-0.90;99.90;;;;;;1827378;78;21063;-74
2022/03/04 01:43:44;;;;;;;20.35;12.65;;;-1.00;99.90;;;;;;1827490;78;21044;-73
2022/03/04 01:46:14;;;;;;;17.90;11.12;;;-1.00;99.90;;;;;;1827444;78;21141;-74
2022/03/04 01:48:41;;;;;;;17.77;12.23;;;-1.00;99.90;;;;;;1827544;78;21091;-73
2022/03/04 01:51:09;;;;;;;18.95;11.33;;;-1.00;99.90;;;;;;1827483;78;21184;-72
2022/03/04 01:53:37;;;;;;;16.37;11.45;;;-1.10;99.90;;;;;;1827484;78;21098;-74
2022/03/04 01:56:04;;;;;;;21.15;11.83;;;-1.10;99.90;;;;;;1827514;78;21063;-73
2022/03/04 01:58:31;;;;;;;19.40;11.65;;;-1.10;99.90;;;;;;1827410;78;21111;-73
2022/03/04 02:00:59;;;;;;;17.87;11.50;;;-1.10;99.90;;;;;;1827463;78;21111;-73
2022/03/04 02:03:26;;;;;;;19.65;11.65;;;-1.20;99.90;;;;;;1827458;78;21067;-73
2022/03/04 02:05:53;;;;;;;17.90;11.43;;;-1.20;99.90;;;;;;1827396;78;21250;-73
2022/03/04 02:08:21;;;;;;;19.30;11.85;;;-1.20;99.90;;;;;;1827502;77;21072;-72
2022/03/04 02:10:48;;;;;;;15.68;11.05;;;-1.20;99.90;;;;;;1827453;78;21087;-72
2022/03/04 02:13:16;;;;;;;21.12;11.83;;;-1.20;99.90;;;;;;1827516;77;21452;-73
2022/03/04 02:15:44;;;;;;;19.90;11.55;;;-1.10;99.90;;;;;;1827429;77;21580;-73
2022/03/04 02:18:13;;;;;;;19.85;11.68;;;-1.10;99.90;;;;;;1827485;78;21141;-73
2022/03/04 02:20:42;;;;;;;19.48;11.35;;;-1.10;99.90;;;;;;1827531;78;21082;-73
2022/03/04 02:23:15;;;;;;;20.95;11.75;;;-1.20;99.90;;;;;;1827490;78;21091;-73
2022/03/04 02:25:40;;;;;;;;;;;-1.20;99.90;;;;;;1829548;78;21172;-72
2022/03/04 02:28:07;;;;;;;24.02;10.30;;;-1.30;99.90;;;;;;1827441;77;20132;-72
2022/03/04 02:30:36;;;;;;;19.80;11.97;;;-1.30;99.90;;;;;;1827529;78;21444;-72
2022/03/04 02:33:05;;;;;;;18.60;10.82;;;-1.30;99.90;;;;;;1827559;77;21102;-72
2022/03/04 02:35:34;;;;;;;24.10;11.20;;;-1.30;99.90;;;;;;1827989;78;21067;-73
2022/03/04 02:38:01;;;;;;;20.43;12.13;;;-1.30;99.90;;;;;;1828485;78;21133;-74
2022/03/04 02:40:29;;;;;;;18.40;12.18;;;-1.30;99.90;;;;;;1829428;78;21196;-74
2022/03/04 02:42:56;;;;;;;20.12;11.75;;;-1.40;99.90;;;;;;1829536;78;21124;-74
2022/03/04 02:45:23;;;;;;;17.17;10.63;;;-1.40;99.90;;;;;;1829713;77;21071;-73
2022/03/04 02:47:51;;;;;;;25.12;12.30;;;-1.50;99.90;;;;;;1830234;75;21133;-73
2022/03/04 02:50:18;;;;;;;17.80;11.40;;;-1.50;99.90;;;;;;1828926;78;21173;-75
2022/03/04 02:52:45;;;;;;;20.27;11.83;;;-1.50;99.90;;;;;;1828428;78;21196;-74
2022/03/04 02:55:13;;;;;;;21.73;11.75;;;-1.50;99.90;;;;;;1828354;78;21075;-74
2022/03/04 02:57:42;;;;;;;23.10;11.48;;;-1.50;99.90;;;;;;1828222;77;21067;-75
2022/03/04 03:00:10;;;;;;;19.32;11.70;;;-1.50;99.90;;;;;;1829009;78;21545;-74
2022/03/04 03:02:37;;;;;;;19.73;11.60;;;-1.50;99.90;;;;;;1828444;78;21455;-73
2022/03/04 03:05:05;;;;;;;18.07;10.80;;;-1.50;99.90;;;;;;1828066;78;21211;-74
2022/03/04 03:07:32;;;;;;;29.95;12.95;;;-1.60;99.90;;;;;;1827947;78;21087;-74
2022/03/04 03:10:00;;;;;;;20.30;12.03;;;-1.60;99.90;;;;;;1827569;78;21076;-74
2022/03/04 03:12:27;;;;;;;18.05;11.88;;;-1.60;99.90;;;;;;1827727;78;21129;-74
2022/03/04 03:14:54;;;;;;;17.37;10.55;;;-1.60;99.90;;;;;;1827914;78;21071;-74
2022/03/04 03:17:22;;;;;;;21.40;10.88;;;-1.60;99.90;;;;;;1828105;78;21140;-74
2022/03/04 03:19:49;;;;;;;16.80;11.45;;;-1.70;99.90;;;;;;1828377;78;21094;-73
2022/03/04 03:22:18;;;;;;;18.80;11.63;;;-1.70;99.90;;;;;;1827804;78;21063;-73
2022/03/04 03:24:46;;;;;;;14.55;10.20;;;-1.80;99.90;;;;;;1827363;78;21161;-72
2022/03/04 03:27:14;;;;;;;23.65;11.57;;;-1.80;99.90;;;;;;1827589;77;21087;-72
2022/03/04 03:29:41;;;;;;;15.20;10.48;;;-1.80;99.90;;;;;;1827554;77;21071;-73
2022/03/04 03:32:10;;;;;;;19.57;11.38;;;-1.70;99.90;;;;;;1827646;77;21087;-72
2022/03/04 03:34:38;;;;;;;19.10;11.68;;;-1.70;99.90;;;;;;1827674;77;21161;-74
2022/03/04 03:37:05;;;;;;;22.52;11.35;;;-1.70;99.90;;;;;;1827578;78;21070;-74
2022/03/04 03:39:32;;;;;;;17.90;11.60;;;-1.80;99.90;;;;;;1827484;78;21044;-74
2022/03/04 03:42:00;;;;;;;18.02;11.68;;;-1.80;99.90;;;;;;1827520;78;21152;-74
2022/03/04 03:44:27;;;;;;;20.20;12.03;;;-1.80;99.90;;;;;;1827630;78;21451;-74
2022/03/04 03:46:55;;;;;;;20.50;11.48;;;-1.80;99.90;;;;;;1827458;78;21048;-74
2022/03/04 03:49:23;;;;;;;17.90;10.30;;;-1.80;99.90;;;;;;1827551;78;21067;-74
2022/03/04 03:51:50;;;;;;;17.35;11.10;;;-1.80;99.90;;;;;;1827551;78;21067;-74
2022/03/04 03:54:17;;;;;;;21.30;11.33;;;-1.80;99.90;;;;;;1827567;78;21141;-74
2022/03/04 03:56:45;;;;;;;16.55;10.72;;;-1.90;99.90;;;;;;1827460;78;21055;-74
2022/03/04 04:02:09;;;;;;;19.23;11.45;;;-1.90;99.90;;;;;;1827475;78;21142;-74
2022/03/04 04:04:39;;;;;;;17.57;11.12;;;-2.00;99.90;;;;;;1827536;78;21441;-74
2022/03/04 04:07:08;;;;;;;21.62;11.03;;;-2.00;99.90;;;;;;1827689;78;21456;-74
2022/03/04 04:09:35;;;;;;;21.00;12.28;;;-1.90;99.90;;;;;;1827351;77;21044;-74
2022/03/04 04:12:03;;;;;;;18.55;11.63;;;-1.90;99.90;;;;;;1827391;78;21040;-74
2022/03/04 04:14:30;;;;;;;16.77;11.10;;;-2.00;99.90;;;;;;1827560;77;21040;-74
2022/03/04 04:16:57;;;;;;;25.37;11.75;;;-2.00;99.90;;;;;;1827516;78;21125;-74
2022/03/04 04:19:25;;;;;;;16.32;10.32;;;-2.00;99.90;;;;;;1827502;78;21125;-74
2022/03/04 04:21:53;;;;;;;16.65;10.70;;;-2.10;99.90;;;;;;1827531;77;21059;-74
2022/03/04 04:24:20;;;;;;;19.50;10.80;;;-2.10;99.90;;;;;;1827423;77;21059;-74
2022/03/04 04:26:47;;;;;;;18.75;11.35;;;-2.10;99.90;;;;;;1827550;77;21549;-74
2022/03/04 04:29:15;;;;;;;18.40;11.03;;;-2.10;99.90;;;;;;1827456;78;21063;-74
2022/03/04 04:31:42;;;;;;;19.90;11.38;;;-2.10;99.90;;;;;;1827454;78;21161;-74
2022/03/04 04:34:10;;;;;;;22.15;11.75;;;-2.10;99.90;;;;;;1827498;78;21200;-74
2022/03/04 04:36:37;;;;;;;18.77;11.90;;;-2.10;99.90;;;;;;1827562;78;21490;-74
2022/03/04 04:39:04;;;;;;;18.70;10.85;;;-2.20;99.90;;;;;;1827528;78;21428;-74
2022/03/04 04:41:32;;;;;;;17.40;11.10;;;-2.20;99.90;;;;;;1827466;78;21090;-72
2022/03/04 04:43:59;;;;;;;24.27;12.58;;;-2.20;99.90;;;;;;1827496;78;21526;-73
2022/03/04 04:46:26;;;;;;;20.88;12.40;;;-2.20;99.90;;;;;;1827424;78;21142;-74
2022/03/04 04:48:54;;;;;;;21.25;11.85;;;-2.20;99.90;;;;;;1827568;77;21149;-74
2022/03/04 04:51:21;;;;;;;21.52;11.90;;;-2.20;99.90;;;;;;1827448;78;21202;-74
2022/03/04 04:53:50;;;;;;;20.97;11.70;;;-2.20;99.90;;;;;;1827571;78;21040;-74
2022/03/04 04:56:17;;;;;;;21.25;12.30;;;-2.30;99.90;;;;;;1827522;78;21165;-74
2022/03/04 04:58:45;;;;;;;18.02;11.40;;;-2.30;99.90;;;;;;1827584;77;21146;-74
2022/03/04 05:01:12;;;;;;;20.50;11.18;;;-2.30;99.90;;;;;;1827634;78;21137;-74
2022/03/04 05:03:39;;;;;;;22.90;11.48;;;-2.40;99.90;;;;;;1827624;78;21168;-74
2022/03/04 05:06:07;;;;;;;20.85;12.55;;;-2.40;99.90;;;;;;1827522;77;21117;-74
2022/03/04 05:08:35;;;;;;;19.65;12.43;;;-2.30;99.90;;;;;;1827493;78;21091;-75
2022/03/04 05:11:02;;;;;;;19.62;11.50;;;-2.40;99.90;;;;;;1827396;78;21141;-74
2022/03/04 05:13:29;;;;;;;20.45;12.80;;;-2.40;99.90;;;;;;1827510;78;21201;-74
2022/03/04 05:15:57;;;;;;;20.57;12.45;;;-2.40;99.90;;;;;;1827421;78;21134;-74
2022/03/04 05:18:24;;;;;;;20.35;12.20;;;-2.40;99.90;;;;;;1827564;78;21059;-75
2022/03/04 05:20:51;;;;;;;21.93;11.78;;;-2.50;99.90;;;;;;1827632;78;21055;-75
2022/03/04 05:26:04;;;;;;;27.98;12.10;;;-2.40;99.90;;;;;;1827429;78;21519;-74
2022/03/04 05:28:31;;;;;;;23.60;12.70;;;-2.50;99.90;;;;;;1827503;77;21072;-74
2022/03/04 05:30:59;;;;;;;18.90;12.00;;;-2.50;99.90;;;;;;1827463;78;21533;-74
2022/03/04 05:33:26;;;;;;;18.42;12.15;;;-2.60;99.90;;;;;;1827442;78;21063;-75
2022/03/04 05:35:53;;;;;;;26.60;12.50;;;-2.50;99.90;;;;;;1827496;78;21463;-75
2022/03/04 05:38:21;;;;;;;21.42;11.68;;;-2.50;99.90;;;;;;1827375;77;21071;-75
2022/03/04 05:40:48;;;;;;;20.25;12.50;;;-2.50;99.90;;;;;;1827380;78;21421;-75
2022/03/04 05:43:15;;;;;;;25.70;12.68;;;-2.60;99.90;;;;;;1827503;78;21067;-75
2022/03/04 05:45:42;;;;;;;18.52;11.10;;;-2.60;99.90;;;;;;1827469;78;21421;-74
2022/03/04 05:48:11;;;;;;;19.23;11.30;;;-2.60;99.90;;;;;;1827436;78;21098;-75
2022/03/04 05:50:39;;;;;;;19.42;12.53;;;-2.60;99.90;;;;;;1827479;77;21153;-72
2022/03/04 05:53:06;;;;;;;19.70;11.90;;;-2.60;99.90;;;;;;1827436;77;21059;-72
2022/03/04 05:55:34;;;;;;;25.95;13.00;;;-2.60;99.90;;;;;;1827356;77;21145;-73
2022/03/04 05:58:01;;;;;;;23.55;12.35;;;-2.60;99.90;;;;;;1827505;78;21103;-74
2022/03/04 06:00:29;;;;;;;20.52;12.53;;;-2.60;99.90;;;;;;1827329;78;21059;-74
2022/03/04 06:02:57;;;;;;;25.20;12.73;;;-2.70;99.90;;;;;;1827569;78;21216;-73
2022/03/04 06:05:24;;;;;;;19.02;12.70;;;-2.60;99.90;;;;;;1827418;77;21079;-74
2022/03/04 06:07:51;;;;;;;23.25;13.65;;;-2.70;99.90;;;;;;1827458;77;21072;-74
2022/03/04 06:10:19;;;;;;;20.15;12.00;;;-2.60;99.90;;;;;;1827406;77;21079;-74
2022/03/04 06:12:46;;;;;;;23.38;13.03;;;-2.60;99.90;;;;;;1827528;78;21143;-74
2022/03/04 06:15:13;;;;;;;24.85;13.08;;;-2.60;99.90;;;;;;1827395;78;21541;-74
2022/03/04 06:17:46;;;;;;;25.62;13.18;;;-2.60;99.90;;;;;;1827452;78;21231;-74
2022/03/04 06:20:13;;;;;;;23.77;13.38;;;-2.60;99.90;;;;;;1827720;78;21041;-75
2022/03/04 06:22:41;;;;;;;26.02;12.95;;;-2.60;99.90;;;;;;1827429;78;21522;-75
2022/03/04 06:25:10;;;;;;;19.30;11.45;;;-2.50;99.90;;;;;;1827480;78;21067;-75
2022/03/04 06:27:39;;;;;;;28.70;14.05;;;-2.50;99.90;;;;;;1827436;77;21483;-75
2022/03/04 06:30:06;;;;;;;24.18;12.85;;;-2.60;99.90;;;;;;1827362;78;21150;-75
2022/03/04 06:32:33;;;;;;;22.40;13.43;;;-2.60;99.90;;;;;;1827283;78;21145;-76
2022/03/04 06:35:01;;;;;;;25.27;13.83;;;-2.50;99.90;;;;;;1827404;78;21106;-76
2022/03/04 06:37:28;;;;;;;19.92;12.78;;;-2.40;99.90;;;;;;1806870;78;21068;-74
2022/03/04 06:39:55;;;;;;;22.00;13.13;;;-2.40;99.90;;;;;;1827704;77;21056;-75
2022/03/04 06:42:23;;;;;;;23.83;13.62;;;-2.40;99.90;;;;;;1827504;78;21082;-74
2022/03/04 06:44:50;;;;;;;23.25;13.18;;;-2.40;99.90;;;;;;1827548;78;21047;-74
2022/03/04 06:47:18;;;;;;;18.48;12.68;;;-2.40;99.90;;;;;;1827566;77;21087;-74
2022/03/04 06:49:45;;;;;;;25.15;13.78;;;-2.30;99.90;;;;;;1827462;78;21162;-74
2022/03/04 06:52:12;;;;;;;24.45;13.78;;;-2.30;99.90;;;;;;1827584;77;21067;-73
2022/03/04 06:54:40;;;;;;;25.10;13.83;;;-2.30;99.90;;;;;;1827485;77;21161;-73
2022/03/04 06:57:07;;;;;;;20.48;13.15;;;-2.20;99.90;;;;;;1827532;77;21076;-73
2022/03/04 06:59:34;;;;;;;22.15;13.83;;;-2.20;99.90;;;;;;1827579;78;21230;-73
2022/03/04 07:02:03;;;;;;;31.15;14.68;;;-2.20;99.90;;;;;;1827438;77;21137;-75
2022/03/04 07:04:31;;;;;;;26.42;14.73;;;-2.20;99.90;;;;;;1827653;78;21204;-71
2022/03/04 07:06:58;;;;;;;28.17;14.80;;;-2.10;99.90;;;;;;1827414;78;21561;-72
2022/03/04 07:09:26;;;;;;;33.55;15.25;;;-2.00;99.90;;;;;;1827433;77;21067;-72
2022/03/04 07:11:54;;;;;;;27.52;14.95;;;-1.90;99.90;;;;;;1827435;78;21499;-74
2022/03/04 07:14:21;;;;;;;25.27;15.45;;;-1.80;99.90;;;;;;1827422;78;21617;-74
2022/03/04 07:16:48;;;;;;;27.58;14.55;;;-1.70;99.90;;;;;;1827445;77;21050;-75
2022/03/04 07:19:16;;;;;;;21.95;13.62;;;-1.70;99.90;;;;;;1827550;78;21549;-75
2022/03/04 07:21:43;;;;;;;23.80;14.65;;;-1.60;99.90;;;;;;1827475;77;21136;-72
2022/03/04 07:24:10;;;;;;;21.73;13.98;;;-1.70;99.90;;;;;;1827541;78;21173;-74
2022/03/04 07:26:38;;;;;;;27.05;15.38;;;-1.70;99.90;;;;;;1827476;77;21071;-73
2022/03/04 07:29:05;;;;;;;24.82;14.95;;;-1.60;99.90;;;;;;1827484;77;21157;-73
2022/03/04 07:31:32;;;;;;;29.95;14.28;;;-1.50;99.90;;;;;;1827519;78;21144;-74
2022/03/04 07:34:00;;;;;;;23.18;14.53;;;-1.40;99.90;;;;;;1827457;78;21123;-74
2022/03/04 07:36:27;;;;;;;23.35;14.25;;;-1.40;99.90;;;;;;1827491;78;21071;-74
2022/03/04 07:38:55;;;;;;;19.90;13.45;;;-1.30;99.90;;;;;;1827376;77;21142;-73
2022/03/04 07:41:22;;;;;;;29.75;13.78;;;-1.10;99.90;;;;;;1827798;77;21086;-72
2022/03/04 07:43:50;;;;;;;24.40;14.35;;;-0.90;99.90;;;;;;1827463;78;21067;-74
2022/03/04 07:46:19;;;;;;;26.95;14.38;;;-0.80;99.90;;;;;;1827486;77;21169;-73
2022/03/04 07:48:46;;;;;;;26.87;15.83;;;-0.80;99.90;;;;;;1827389;78;21086;-74
2022/03/04 07:51:13;;;;;;;24.25;13.98;;;-0.70;99.90;;;;;;1827525;77;21067;-72
2022/03/04 07:53:41;;;;;;;30.23;14.95;;;-0.60;99.90;;;;;;1827474;78;21103;-73
2022/03/04 07:56:09;;;;;;;26.20;14.83;;;-0.50;99.90;;;;;;1827354;78;21069;-75
2022/03/04 07:58:50;;;;;;;27.65;14.40;;;-0.20;99.90;;;;;;1827492;78;21079;-72
2022/03/04 08:01:17;;;;;;;31.37;14.33;;;0.00;99.90;;;;;;1827671;78;21039;-75
2022/03/04 08:03:45;;;;;;;22.60;14.90;;;0.00;99.90;;;;;;1827744;78;21490;-75
2022/03/04 08:06:12;;;;;;;26.57;15.75;;;0.20;99.90;;;;;;1827879;77;21503;-75
2022/03/04 08:08:40;;;;;;;28.45;14.98;;;0.30;99.90;;;;;;1827853;78;21122;-77
2022/03/04 08:11:07;;;;;;;37.45;15.00;;;0.40;99.90;;;;;;1827898;78;21518;-73
2022/03/04 08:13:36;;;;;;;25.70;15.38;;;0.50;99.90;;;;;;1827528;78;21128;-74
2022/03/04 08:16:04;;;;;;;24.45;14.23;;;0.60;99.90;;;;;;1827450;77;21098;-72
2022/03/04 08:18:31;;;;;;;26.80;15.83;;;0.80;99.90;;;;;;1827379;77;21114;-72
2022/03/04 08:20:59;;;;;;;31.60;14.85;;;0.90;99.90;;;;;;1827618;77;21118;-73
2022/03/04 08:23:26;;;;;;;25.40;15.25;;;1.10;99.90;;;;;;1827702;78;21086;-71
2022/03/04 08:25:55;;;;;;;24.00;14.90;;;1.40;99.90;;;;;;1827778;78;21079;-74
2022/03/04 08:28:23;;;;;;;21.80;15.00;;;1.60;99.90;;;;;;1827748;78;21528;-72
2022/03/04 08:30:50;;;;;;;23.02;14.43;;;2.00;99.90;;;;;;1827863;77;21145;-73
2022/03/04 08:33:17;;;;;;;26.77;15.13;;;2.20;99.90;;;;;;1827780;78;21167;-75
2022/03/04 08:35:45;;;;;;;23.65;14.93;;;2.30;99.90;;;;;;1827942;78;21475;-74
2022/03/04 08:38:12;;;;;;;24.92;14.70;;;2.50;99.90;;;;;;1827907;78;21072;-72
2022/03/04 08:40:54;;;;;;;28.32;15.03;;;2.70;99.90;;;;;;1827865;78;21044;-73
2022/03/04 08:43:34;;;;;;;27.48;14.93;;;3.20;99.90;;;;;;1827738;77;21122;-74
2022/03/04 08:46:08;;;;;;;33.60;15.98;;;3.20;99.90;;;;;;1828179;78;21051;-74
2022/03/04 08:48:42;;;;;;;25.15;15.98;;;3.20;99.90;;;;;;1827926;78;21059;-74
2022/03/04 08:51:12;;;;;;;26.77;13.93;;;3.50;99.90;;;;;;1827256;77;21401;-74
2022/03/04 08:53:42;;;;;;;30.30;15.28;;;3.80;99.90;;;;;;1827819;77;21448;-74
2022/03/04 08:56:10;;;;;;;29.72;15.53;;;4.20;99.90;;;;;;1827981;77;21067;-74
2022/03/04 08:58:37;;;;;;;24.85;15.08;;;4.10;99.90;;;;;;1827884;78;21145;-74
2022/03/04 09:01:05;;;;;;;30.35;15.00;;;4.10;99.90;;;;;;1828076;78;21076;-75
2022/03/04 09:03:32;;;;;;;27.22;15.68;;;4.60;99.90;;;;;;1827921;77;21044;-74
2022/03/04 09:06:00;;;;;;;33.50;15.45;;;4.70;99.90;;;;;;1827845;78;21181;-74
2022/03/04 09:08:29;;;;;;;27.58;16.00;;;4.90;99.90;;;;;;1827732;78;21044;-75
2022/03/04 09:10:56;;;;;;;28.50;15.30;;;5.30;99.90;;;;;;1827833;78;21067;-74
2022/03/04 09:13:25;;;;;;;32.63;15.28;;;5.40;99.90;;;;;;1827854;77;21141;-74
2022/03/04 09:15:52;;;;;;;28.17;14.25;;;5.00;99.90;;;;;;1827529;78;21087;-75
2022/03/04 09:18:20;;;;;;;28.32;14.93;;;5.10;99.90;;;;;;1827609;78;21149;-74
2022/03/04 09:20:47;;;;;;;39.10;15.28;;;5.80;99.90;;;;;;1827610;77;21110;-74
2022/03/04 09:24:04;;;;;;;33.78;19.05;;;5.90;99.90;;;;;;1827467;78;21047;-74
2022/03/04 09:26:32;;;;;;;26.07;15.30;;;6.00;99.90;;;;;;1827470;78;21103;-74
2022/03/04 09:28:59;;;;;;;22.37;14.98;;;6.60;99.90;;;;;;1827475;77;21059;-74
2022/03/04 09:31:35;;;;;;;28.32;15.23;;;6.70;99.90;;;;;;1827439;77;21129;-75
2022/03/04 09:34:02;;;;;;;33.10;16.40;;;6.70;99.90;;;;;;1827399;78;21126;-74
2022/03/04 09:36:29;;;;;;;24.10;14.38;;;6.80;99.90;;;;;;1827529;77;21063;-75
2022/03/04 09:38:59;;;;;;;29.10;16.12;;;7.00;99.90;;;;;;1827414;78;21066;-75
2022/03/04 09:41:26;;;;;;;27.05;15.55;;;6.60;99.90;;;;;;1827333;77;21219;-74
2022/03/04 09:43:57;;;;;;;30.70;16.17;;;6.40;99.90;;;;;;1827525;78;21049;-74
2022/03/04 09:46:23;;;;;;;;;;;6.60;99.90;;;;;;1830243;78;21044;-74
2022/03/04 09:48:52;;;;;;;33.23;15.00;;;6.60;99.90;;;;;;1806722;78;20333;-74
2022/03/04 09:51:20;;;;;;;28.32;15.90;;;7.20;99.90;;;;;;1827427;78;21103;-74
2022/03/04 09:53:50;;;;;;;24.32;14.65;;;7.20;99.90;;;;;;1827610;77;21152;-75
2022/03/04 09:56:19;;;;;;;21.02;14.40;;;7.60;99.90;;;;;;1827308;78;21060;-74
2022/03/04 09:58:46;;;;;;;20.37;14.33;;;8.00;99.90;;;;;;1827278;78;21068;-75
2022/03/04 10:01:15;;;;;;;24.47;14.65;;;8.20;99.40;;;;;;1827477;77;21068;-74
2022/03/04 10:03:47;;;;;;;24.18;14.18;;;8.40;96.10;;;;;;1827518;77;21154;-74
2022/03/04 10:06:15;;;;;;;20.77;13.10;;;8.60;93.40;;;;;;1827571;78;21028;-74
2022/03/04 10:08:47;;;;;;;30.10;14.20;;;8.60;92.30;;;;;;1827613;78;21108;-75
2022/03/04 10:11:31;;;;;;;23.20;14.38;;;8.70;92.90;;;;;;1827439;78;21451;-74
2022/03/04 10:13:59;;;;;;;29.18;13.35;;;9.00;92.60;;;;;;1827747;78;21075;-74
2022/03/04 10:16:28;;;;;;;23.60;14.13;;;8.80;90.40;;;;;;1827767;77;21149;-75
2022/03/04 10:19:12;;;;;;;21.30;14.33;;;8.60;89.90;;;;;;1827542;78;21040;-74
2022/03/04 10:21:53;;;;;;;22.77;14.25;;;8.60;90.10;;;;;;1827416;77;21087;-75
2022/03/04 10:24:32;;;;;;;23.87;13.95;;;8.70;89.50;;;;;;1827554;77;21146;-75
2022/03/04 10:27:04;;;;;;;22.75;13.83;;;8.20;89.00;;;;;;1827879;78;21101;-74
2022/03/04 10:29:34;;;;;;;22.60;14.58;;;8.70;89.50;;;;;;1827590;78;21087;-75
2022/03/04 10:32:24;;;;;;;31.37;14.68;;;8.90;86.60;;;;;;1827627;78;21059;-75
2022/03/04 10:35:05;;;;;;;20.82;13.30;;;8.80;87.30;;;;;;1817695;78;21153;-75
2022/03/04 10:37:50;;;;;;;25.37;13.35;;;9.10;84.00;;;;;;1827439;77;21180;-75
2022/03/04 10:40:30;;;;;;;22.37;13.13;;;9.30;85.90;;;;;;1827522;78;21079;-73
2022/03/04 10:43:11;;;;;;;28.23;13.80;;;10.00;82.70;;;;;;1826547;77;21141;-75
2022/03/04 10:45:44;;;;;;;26.02;13.55;;;9.70;78.00;;;;;;1827581;78;21459;-74
2022/03/04 10:48:19;;;;;;;26.70;12.15;;;9.50;78.10;;;;;;1827390;78;21040;-73
2022/03/04 10:50:55;;;;;;;17.60;12.37;;;10.00;75.70;;;;;;1827608;78;21082;-73
2022/03/04 10:53:28;;;;;;;21.77;12.13;;;10.20;72.90;;;;;;1827294;78;21188;-74
2022/03/04 10:56:00;;;;;;;20.00;12.43;;;10.30;74.20;;;;;;1827545;78;21063;-75
2022/03/04 10:58:33;;;;;;;20.82;13.28;;;10.40;73.40;;;;;;1827706;78;21028;-75
2022/03/04 11:01:19;;;;;;;18.12;12.55;;;9.90;72.60;;;;;;1827768;78;21440;-74
2022/03/04 11:03:47;;;;;;;25.95;12.85;;;9.40;75.30;;;;;;1788106;78;21071;-74
2022/03/04 11:06:17;;;;;;;17.48;12.33;;;10.50;73.90;;;;;;1827996;77;21063;-74
2022/03/04 11:08:44;;;;;;;22.20;12.87;;;10.80;72.10;;;;;;1828128;77;21079;-74
2022/03/04 11:11:12;;;;;;;31.42;12.93;;;10.30;71.00;;;;;;1832029;77;21142;-74
2022/03/04 11:13:41;;;;;;;25.15;13.28;;;10.50;70.80;;;;;;1827694;78;21581;-74
2022/03/04 11:16:09;;;;;;;18.67;12.43;;;10.70;70.20;;;;;;1828401;77;21083;-73
2022/03/04 11:18:37;;;;;;;19.32;11.95;;;10.90;67.60;;;;;;1827731;77;21118;-74
2022/03/04 11:21:06;;;;;;;23.98;12.30;;;10.60;67.90;;;;;;1827777;78;21079;-73
2022/03/04 11:23:35;;;;;;;20.43;11.88;;;10.80;66.80;;;;;;1828191;78;21130;-72
2022/03/04 11:26:06;;;;;;;19.30;12.33;;;10.90;64.30;;;;;;1827982;77;21476;-72
2022/03/04 11:28:40;;;;;;;;;;;11.10;64.50;;;;;;1829824;77;21197;-74
2022/03/04 11:31:13;;;;;;;20.70;12.28;;;10.90;64.60;;;;;;1827614;78;20120;-74
2022/03/04 11:33:51;;;;;;;22.17;12.10;;;10.80;65.30;;;;;;1828155;77;21067;-73
2022/03/04 11:36:25;;;;;;;21.17;11.85;;;11.10;64.80;;;;;;1827399;77;21059;-72
2022/03/04 11:38:56;;;;;;;17.50;10.85;;;12.10;61.90;;;;;;1827993;77;21095;-73
2022/03/04 11:41:37;;;;;;;18.32;11.80;;;11.70;61.10;;;;;;1827993;78;21090;-73
2022/03/04 11:44:13;;;;;;;19.00;11.03;;;11.80;59.00;;;;;;1827904;78;21157;-75
2022/03/04 11:46:48;;;;;;;20.32;11.85;;;11.90;58.70;;;;;;1828135;78;21071;-73
2022/03/04 11:49:34;;;;;;;22.37;11.12;;;12.00;58.70;;;;;;1827985;78;21102;-72
2022/03/04 11:52:19;;;;;;;17.35;11.05;;;11.90;59.60;;;;;;1828024;78;21043;-74
2022/03/04 11:55:00;;;;;;;19.90;11.03;;;11.50;59.20;;;;;;1827278;78;21536;-73
2022/03/04 11:57:29;;;;;;;19.15;11.63;;;11.70;59.40;;;;;;1827818;78;21475;-73
2022/03/04 12:00:16;;;;;;;18.02;11.45;;;11.90;58.20;;;;;;1827694;77;21068;-72
2022/03/04 12:02:47;;;;;;;18.73;11.68;;;11.40;57.20;;;;;;1827883;78;21476;-74
2022/03/04 12:05:25;;;;;;;19.50;11.65;;;10.90;59.10;;;;;;1827709;77;21142;-73
2022/03/04 12:07:48;;;;;;;20.35;12.20;;;11.50;58.30;;;;;;1826569;77;21479;-75
2022/03/04 12:10:17;;;;;;;26.93;11.15;;;11.70;57.40;;;;;;1827630;78;21087;-74
2022/03/04 12:13:02;;;;;;;19.15;11.03;;;11.90;57.20;;;;;;1827719;77;21083;-73
2022/03/04 12:15:31;;;;;;;21.60;11.85;;;11.70;57.30;;;;;;1823526;78;21072;-74
2022/03/04 12:18:03;;;;;;;17.05;10.53;;;12.10;57.10;;;;;;1827710;77;21130;-74
2022/03/04 12:20:41;;;;;;;20.25;11.68;;;12.30;57.10;;;;;;1832102;78;21080;-72
2022/03/04 12:23:19;;;;;;;24.18;12.00;;;12.40;56.00;;;;;;1821611;78;21044;-74
2022/03/04 12:25:56;;;;;;;16.97;11.68;;;12.80;56.80;;;;;;1827844;78;21043;-74
2022/03/04 12:28:26;;;;;;;19.15;11.90;;;13.30;56.70;;;;;;1827757;78;21146;-73
2022/03/04 12:31:05;;;;;;;18.27;11.13;;;12.50;57.00;;;;;;1828062;77;21227;-72
2022/03/04 12:33:37;;;;;;;17.85;12.00;;;13.00;56.60;;;;;;1827677;78;21133;-75
2022/03/04 12:36:05;;;;;;;18.07;11.95;;;13.20;55.30;;;;;;1827748;78;21067;-73
2022/03/04 12:38:40;;;;;;;21.97;11.75;;;14.10;55.50;;;;;;1827772;78;21067;-73
2022/03/04 12:41:15;;;;;;;18.65;10.90;;;14.00;53.80;;;;;;1827304;77;21099;-74
2022/03/04 12:43:39;;;;;;;15.38;10.72;;;13.40;55.20;;;;;;1827119;78;21064;-73
2022/03/04 12:46:06;;;;;;;21.50;11.10;;;12.60;56.20;;;;;;1827490;78;21223;-73